Time;durP1;ratioP1;P1;durP2;ratioP2;P2;SDS_P1;SDS_P2;PMS_P1;PMS_P2;Temp;Humidity;BMP_temperature;BMP_pressure;BME280_temperature;BME280_humidity;BME280_pressure;Samples;Min_cycle;Max_cycle;Signal;HPM_P1;HPM_P2
2022/12/04 00:01:04;;;;;;;104.30;38.35;;;1.00;99.90;;;;;;4409259;28;659439;-65
2022/12/04 00:03:53;;;;;;;94.60;36.20;;;0.90;99.90;;;;;;4391009;28;658539;-64
2022/12/04 00:06:40;;;;;;;94.77;36.13;;;0.90;99.90;;;;;;4392045;28;657813;-65
2022/12/04 00:09:28;;;;;;;92.37;36.30;;;1.00;99.90;;;;;;4410137;28;659327;-64
2022/12/04 00:12:15;;;;;;;93.17;36.73;;;1.00;99.90;;;;;;4403468;28;657385;-66
2022/12/04 00:15:03;;;;;;;87.00;34.53;;;0.90;99.90;;;;;;4412017;28;658350;-65
2022/12/04 00:17:50;;;;;;;81.73;32.10;;;0.90;99.90;;;;;;4397059;28;657944;-66
2022/12/04 00:20:40;;;;;;;83.53;32.70;;;1.00;99.90;;;;;;4414538;28;657846;-64
2022/12/04 00:23:27;;;;;;;93.60;37.33;;;1.00;99.90;;;;;;4389308;28;658019;-66
2022/12/04 00:26:15;;;;;;;87.00;34.57;;;1.10;99.90;;;;;;4413950;28;658816;-65
2022/12/04 00:29:02;;;;;;;96.20;34.73;;;1.10;99.90;;;;;;4390076;28;658135;-64
2022/12/04 00:31:49;;;;;;;85.63;34.43;;;1.10;99.90;;;;;;4417505;28;657250;-64
2022/12/04 00:34:36;;;;;;;94.37;35.23;;;1.00;99.90;;;;;;4395683;28;657503;-64
2022/12/04 00:37:25;;;;;;;90.80;34.00;;;1.00;99.90;;;;;;4407117;28;658165;-64
2022/12/04 00:40:13;;;;;;;88.37;33.77;;;1.00;99.90;;;;;;4383925;28;659804;-64
2022/12/04 00:43:00;;;;;;;90.20;33.17;;;0.90;99.90;;;;;;4397571;28;657938;-65
2022/12/04 00:45:47;;;;;;;71.77;29.73;;;0.90;99.90;;;;;;4417852;28;658871;-64
2022/12/04 00:48:34;;;;;;;79.57;31.47;;;0.80;99.90;;;;;;4414546;28;657537;-66
2022/12/04 00:51:23;;;;;;;77.47;31.67;;;0.80;99.90;;;;;;4388594;28;658416;-64
2022/12/04 00:54:11;;;;;;;74.87;30.80;;;0.80;99.90;;;;;;4407097;28;657949;-65
2022/12/04 00:56:58;;;;;;;113.00;36.77;;;0.80;99.90;;;;;;4409169;28;658334;-65
2022/12/04 00:59:46;;;;;;;81.23;30.67;;;0.90;99.90;;;;;;4389335;28;658814;-64
2022/12/04 01:02:33;;;;;;;81.53;31.93;;;0.90;99.90;;;;;;4412784;28;658316;-64
2022/12/04 01:05:20;;;;;;;76.40;30.27;;;0.90;99.90;;;;;;4404907;28;657640;-65
2022/12/04 01:08:07;;;;;;;72.97;29.10;;;0.90;99.90;;;;;;4425808;28;658826;-64
2022/12/04 01:10:56;;;;;;;61.37;24.80;;;0.80;99.90;;;;;;4411370;28;657517;-64
2022/12/04 01:13:43;;;;;;;72.80;28.57;;;0.90;99.90;;;;;;4389380;28;658419;-65
2022/12/04 01:16:32;;;;;;;75.83;29.33;;;0.80;99.90;;;;;;4394366;28;657879;-65
2022/12/04 01:19:19;;;;;;;74.83;27.73;;;0.80;99.90;;;;;;4412436;28;658324;-64
2022/12/04 01:22:06;;;;;;;83.00;30.47;;;0.80;99.90;;;;;;4390762;28;657580;-65
2022/12/04 01:24:55;;;;;;;74.93;30.17;;;0.80;99.90;;;;;;4412452;28;657591;-64
2022/12/04 01:27:44;;;;;;;84.23;32.10;;;0.80;99.90;;;;;;4385838;28;658744;-64
2022/12/04 01:30:31;;;;;;;81.70;30.37;;;0.70;99.90;;;;;;4395028;28;657656;-64
2022/12/04 01:33:18;;;;;;;74.77;30.17;;;0.70;99.90;;;;;;4413681;28;657776;-64
2022/12/04 01:36:06;;;;;;;73.82;29.55;;;0.70;99.90;;;;;;4389494;28;657716;-65
2022/12/04 01:38:53;;;;;;;83.37;31.57;;;0.70;99.90;;;;;;4405886;28;658587;-65
2022/12/04 01:41:40;;;;;;;84.43;32.70;;;0.70;99.90;;;;;;4387813;28;657448;-65
2022/12/04 01:44:30;;;;;;;80.47;29.97;;;0.70;99.90;;;;;;4408583;28;659601;-64
2022/12/04 01:47:17;;;;;;;93.33;27.23;;;0.60;99.90;;;;;;4387781;28;658988;-64
2022/12/04 01:50:05;;;;;;;75.43;31.90;;;0.60;99.90;;;;;;4405837;28;657500;-64
2022/12/04 01:52:52;;;;;;;68.30;29.17;;;0.70;99.90;;;;;;4388217;28;658452;-64
2022/12/04 01:55:39;;;;;;;63.37;27.30;;;0.80;99.90;;;;;;4408659;28;657723;-65
2022/12/04 01:58:29;;;;;;;69.80;28.73;;;0.70;99.90;;;;;;4392853;28;657801;-64
2022/12/04 02:01:17;;;;;;;65.77;28.27;;;0.70;99.90;;;;;;4387556;28;657608;-64
2022/12/04 02:04:04;;;;;;;71.83;28.17;;;0.80;99.90;;;;;;4406513;28;657231;-64
2022/12/04 02:06:51;;;;;;;62.87;26.27;;;0.70;99.90;;;;;;4389669;28;657707;-64
2022/12/04 02:09:39;;;;;;;70.30;27.47;;;0.80;99.90;;;;;;4407915;28;658376;-64
2022/12/04 02:12:31;;;;;;;69.43;27.30;;;0.80;99.90;;;;;;4388913;28;657572;-64
2022/12/04 02:15:22;;;;;;;69.73;27.13;;;0.80;99.90;;;;;;4391773;28;658089;-64
2022/12/04 02:18:13;;;;;;;63.23;25.40;;;0.80;99.90;;;;;;4386674;28;659049;-64
2022/12/04 02:21:02;;;;;;;58.70;25.13;;;0.80;99.90;;;;;;4379845;28;657664;-65
2022/12/04 02:23:56;;;;;;;63.40;25.50;;;0.80;99.90;;;;;;4409200;28;658616;-65
2022/12/04 02:26:46;;;;;;;65.87;26.07;;;0.80;99.90;;;;;;4390367;28;658426;-66
2022/12/04 02:29:37;;;;;;;70.20;27.17;;;0.80;99.90;;;;;;4388234;28;658405;-65
2022/12/04 02:32:28;;;;;;;64.57;24.63;;;0.80;99.90;;;;;;4387619;28;657078;-64
2022/12/04 02:35:16;;;;;;;59.80;24.13;;;0.80;99.90;;;;;;4375346;28;657435;-66
2022/12/04 02:38:06;;;;;;;62.23;24.37;;;0.80;99.90;;;;;;4411597;28;659326;-65
2022/12/04 02:40:57;;;;;;;62.70;24.43;;;0.80;99.90;;;;;;4386965;28;658717;-66
2022/12/04 02:43:44;;;;;;;64.43;24.23;;;0.70;99.90;;;;;;4394381;28;657629;-65
2022/12/04 02:46:36;;;;;;;62.17;22.90;;;0.80;99.90;;;;;;4397026;28;657398;-65
2022/12/04 02:49:26;;;;;;;61.83;21.80;;;0.80;99.90;;;;;;4390352;28;658619;-66
2022/12/04 02:52:16;;;;;;;76.13;25.90;;;0.70;99.90;;;;;;4385933;28;657843;-64
2022/12/04 02:55:04;;;;;;;62.97;23.83;;;0.70;99.90;;;;;;4389265;28;657939;-65
2022/12/04 02:57:53;;;;;;;68.17;24.40;;;0.80;99.90;;;;;;4386748;28;658465;-65
2022/12/04 03:00:40;;;;;;;92.17;27.37;;;0.70;99.90;;;;;;4527935;28;657449;-64
2022/12/04 03:03:30;;;;;;;60.23;23.87;;;0.70;99.90;;;;;;4754278;28;534255;-65
2022/12/04 03:06:17;;;;;;;57.53;22.07;;;0.70;99.90;;;;;;4389356;28;659471;-65
2022/12/04 03:09:06;;;;;;;62.23;23.60;;;0.70;99.90;;;;;;4412609;28;657656;-65
2022/12/04 03:11:55;;;;;;;55.40;22.33;;;0.70;99.90;;;;;;4396279;28;659182;-66
2022/12/04 03:14:43;;;;;;;61.17;24.67;;;0.70;99.90;;;;;;4389511;28;658980;-65
2022/12/04 03:17:32;;;;;;;70.23;26.27;;;0.70;99.90;;;;;;4387479;28;657595;-65
2022/12/04 03:20:21;;;;;;;64.20;23.50;;;0.70;99.90;;;;;;4413740;28;657557;-66
2022/12/04 03:23:11;;;;;;;61.60;23.97;;;0.70;99.90;;;;;;4414001;28;658556;-65
2022/12/04 03:26:00;;;;;;;53.83;21.80;;;0.70;99.90;;;;;;4384885;28;658636;-64
2022/12/04 03:28:52;;;;;;;55.65;22.90;;;0.70;99.90;;;;;;4393524;28;658028;-65
2022/12/04 03:31:42;;;;;;;52.23;20.97;;;0.70;99.90;;;;;;4388321;28;657465;-64
2022/12/04 03:34:32;;;;;;;61.57;22.43;;;0.70;99.90;;;;;;4389060;28;657198;-65
2022/12/04 03:37:26;;;;;;;59.07;22.67;;;0.60;99.90;;;;;;4393809;28;657523;-65
2022/12/04 03:40:17;;;;;;;68.10;24.73;;;0.60;99.90;;;;;;4391390;28;658174;-64
2022/12/04 03:43:05;;;;;;;64.57;24.73;;;0.60;99.90;;;;;;4397811;28;658025;-65
2022/12/04 03:45:54;;;;;;;56.80;21.77;;;0.60;99.90;;;;;;4389234;28;659963;-66
2022/12/04 03:48:42;;;;;;;61.27;22.73;;;0.60;99.90;;;;;;4395810;28;657892;-65
2022/12/04 03:51:32;;;;;;;111.20;25.20;;;0.50;99.90;;;;;;4418540;28;657427;-64
2022/12/04 03:54:22;;;;;;;60.20;23.33;;;0.60;99.90;;;;;;4387819;28;658500;-65
2022/12/04 03:57:12;;;;;;;64.38;23.30;;;0.60;99.90;;;;;;4393720;28;657517;-65
2022/12/04 04:00:04;;;;;;;57.70;21.77;;;0.60;99.90;;;;;;4407330;28;657392;-66
2022/12/04 04:02:53;;;;;;;65.23;23.27;;;0.60;99.90;;;;;;4389181;28;657423;-66
2022/12/04 04:05:41;;;;;;;58.27;22.57;;;0.60;99.90;;;;;;4394568;28;659407;-65
2022/12/04 04:08:32;;;;;;;58.23;21.30;;;0.60;99.90;;;;;;4412071;28;657691;-65
2022/12/04 04:11:23;;;;;;;48.33;19.73;;;0.60;99.90;;;;;;4410840;28;657751;-66
2022/12/04 04:26:38;;;;;;;50.33;16.97;;;0.60;99.90;;;;;;4405799;28;657509;-66
2022/12/04 04:29:25;;;;;;;57.83;21.83;;;0.60;99.90;;;;;;4391033;28;658173;-65
2022/12/04 04:32:14;;;;;;;62.80;22.40;;;0.60;99.90;;;;;;4412195;28;658737;-66
2022/12/04 04:35:06;;;;;;;61.50;22.23;;;0.60;99.90;;;;;;4385747;28;658155;-65
2022/12/04 04:37:56;;;;;;;43.33;19.17;;;0.60;99.90;;;;;;4391449;28;658039;-65
2022/12/04 04:40:45;;;;;;;47.78;20.00;;;0.60;99.90;;;;;;4391506;28;658309;-64
2022/12/04 04:43:35;;;;;;;44.83;18.83;;;0.60;99.90;;;;;;4390915;28;659594;-65
2022/12/04 04:46:25;;;;;;;34.00;15.07;;;0.60;99.90;;;;;;4391448;28;658727;-64
2022/12/04 04:49:12;;;;;;;43.00;18.13;;;0.60;99.90;;;;;;4395290;28;659712;-65
2022/12/04 04:51:59;;;;;;;50.60;19.80;;;0.60;99.90;;;;;;4407485;28;658129;-65
2022/12/04 04:54:46;;;;;;;46.90;18.80;;;0.60;99.90;;;;;;4394368;28;657942;-65
2022/12/04 04:57:35;;;;;;;41.37;18.00;;;0.60;99.90;;;;;;4411819;28;658736;-64
2022/12/04 05:00:23;;;;;;;42.03;16.93;;;0.60;99.90;;;;;;4451102;28;658285;-65
2022/12/04 05:03:11;;;;;;;47.73;19.50;;;0.60;99.90;;;;;;4803539;28;535134;-65
2022/12/04 05:05:58;;;;;;;46.13;17.50;;;0.60;99.90;;;;;;4414866;28;658473;-66
2022/12/04 05:08:48;;;;;;;48.13;19.03;;;0.50;99.90;;;;;;4404476;28;657945;-66
2022/12/04 05:11:35;;;;;;;46.17;17.87;;;0.50;99.90;;;;;;4404226;28;657922;-66
2022/12/04 05:14:22;;;;;;;42.28;17.10;;;0.50;99.90;;;;;;4417461;28;657424;-65
2022/12/04 05:17:11;;;;;;;47.57;18.57;;;0.50;99.90;;;;;;4413280;28;658370;-65
2022/12/04 05:19:57;;;;;;;40.30;18.70;;;0.50;99.90;;;;;;4391527;28;658495;-65
2022/12/04 05:22:44;;;;;;;47.63;18.20;;;0.60;99.90;;;;;;4411424;28;657907;-65
2022/12/04 05:25:31;;;;;;;43.30;16.60;;;0.60;99.90;;;;;;4394871;28;658174;-64
2022/12/04 05:28:18;;;;;;;40.67;17.63;;;0.50;99.90;;;;;;4410527;28;658723;-66
2022/12/04 05:31:05;;;;;;;75.00;17.43;;;0.50;99.90;;;;;;4393578;28;657536;-66
2022/12/04 05:33:54;;;;;;;47.17;19.37;;;0.50;99.90;;;;;;4414601;28;657951;-65
2022/12/04 05:36:41;;;;;;;41.97;17.30;;;0.60;99.90;;;;;;4396518;28;657709;-65
2022/12/04 05:39:28;;;;;;;44.00;17.97;;;0.60;99.90;;;;;;4416526;28;657975;-66
2022/12/04 05:42:15;;;;;;;45.63;17.37;;;0.60;99.90;;;;;;4394254;28;657783;-66
2022/12/04 05:45:02;;;;;;;40.03;16.87;;;0.60;99.90;;;;;;4418001;28;658199;-65
2022/12/04 05:47:50;;;;;;;40.67;17.83;;;0.70;99.90;;;;;;4411516;28;657205;-65
2022/12/04 05:50:39;;;;;;;48.63;18.20;;;0.70;99.90;;;;;;4391572;28;659276;-65
2022/12/04 05:53:26;;;;;;;43.47;16.87;;;0.60;99.90;;;;;;4384331;28;658449;-66
2022/12/04 05:56:13;;;;;;;42.97;19.03;;;0.60;99.90;;;;;;4412925;28;657754;-65
2022/12/04 05:59:00;;;;;;;48.33;18.57;;;0.60;99.90;;;;;;4393125;28;658405;-65
2022/12/04 06:01:47;;;;;;;41.93;17.77;;;0.60;99.90;;;;;;4407314;28;659541;-66
2022/12/04 06:04:36;;;;;;;53.00;18.20;;;0.60;99.90;;;;;;4410021;28;657530;-67
2022/12/04 06:07:25;;;;;;;64.27;17.27;;;0.60;99.90;;;;;;4414545;28;657522;-65
2022/12/04 06:10:12;;;;;;;47.17;18.97;;;0.60;99.90;;;;;;4392683;28;658917;-65
2022/12/04 06:12:59;;;;;;;48.80;17.30;;;0.60;99.90;;;;;;4415326;28;657288;-65
2022/12/04 06:15:46;;;;;;;51.95;20.83;;;0.60;99.90;;;;;;4396001;28;657666;-66
2022/12/04 06:18:33;;;;;;;60.90;23.03;;;0.60;99.90;;;;;;4413812;28;659003;-65
2022/12/04 06:21:21;;;;;;;59.50;21.37;;;0.60;99.90;;;;;;4393130;28;657272;-67
2022/12/04 06:24:11;;;;;;;64.03;22.80;;;0.60;99.90;;;;;;4411668;28;659512;-66
2022/12/04 06:26:58;;;;;;;48.60;20.23;;;0.60;99.90;;;;;;4387352;28;658697;-65
2022/12/04 06:29:45;;;;;;;48.73;18.80;;;0.70;99.90;;;;;;4392747;28;657478;-66
2022/12/04 06:32:32;;;;;;;39.50;15.83;;;0.70;99.90;;;;;;4415075;28;659099;-66
2022/12/04 06:35:20;;;;;;;47.63;19.67;;;0.70;99.90;;;;;;4407882;28;660240;-66
2022/12/04 06:38:07;;;;;;;37.67;17.00;;;0.70;99.90;;;;;;4413951;28;657457;-65
2022/12/04 06:40:56;;;;;;;44.27;18.20;;;0.70;99.90;;;;;;4411713;28;657673;-67
2022/12/04 06:43:44;;;;;;;40.90;17.90;;;0.70;99.90;;;;;;4410514;28;657832;-66
2022/12/04 06:46:32;;;;;;;52.97;20.43;;;0.70;99.90;;;;;;4394991;28;658030;-65
2022/12/04 06:49:21;;;;;;;42.37;18.40;;;0.70;99.90;;;;;;4414578;28;658299;-65
2022/12/04 06:52:08;;;;;;;41.90;17.93;;;0.60;99.90;;;;;;4391157;28;659296;-65
2022/12/04 06:54:55;;;;;;;46.47;19.00;;;0.70;99.90;;;;;;4391305;28;657622;-66
2022/12/04 06:57:44;;;;;;;46.83;19.57;;;0.70;99.90;;;;;;4417076;28;659791;-65
2022/12/04 07:00:31;;;;;;;45.57;18.83;;;0.70;99.90;;;;;;4488794;28;657509;-65
2022/12/04 07:03:18;;;;;;;43.93;19.80;;;0.70;99.90;;;;;;4785743;28;534465;-65
2022/12/04 07:06:13;;;;;;;46.90;20.58;;;0.80;99.90;;;;;;4391910;28;657777;-66
2022/12/04 07:09:01;;;;;;;46.33;19.10;;;0.80;99.90;;;;;;4371416;28;658375;-66
2022/12/04 07:11:48;;;;;;;52.10;20.40;;;0.70;99.90;;;;;;4413600;28;657711;-66
2022/12/04 07:14:36;;;;;;;45.83;20.08;;;0.70;99.90;;;;;;4396477;28;659085;-66
2022/12/04 07:17:24;;;;;;;50.23;20.87;;;0.80;99.90;;;;;;4416792;28;658008;-64
2022/12/04 07:20:12;;;;;;;43.87;19.80;;;0.80;99.90;;;;;;4396687;28;658108;-65
2022/12/04 07:22:59;;;;;;;50.57;20.77;;;0.80;99.90;;;;;;4411081;28;658412;-65
2022/12/04 07:25:46;;;;;;;48.23;19.07;;;0.90;99.90;;;;;;4392956;28;657871;-66
2022/12/04 07:28:33;;;;;;;129.90;20.93;;;1.00;99.90;;;;;;4418100;28;658066;-65
2022/12/04 07:31:22;;;;;;;45.50;18.40;;;1.00;99.90;;;;;;4399536;28;658762;-67
2022/12/04 07:34:10;;;;;;;42.87;18.07;;;1.10;99.90;;;;;;4412832;28;657699;-66
2022/12/04 07:36:57;;;;;;;48.95;17.38;;;1.20;99.90;;;;;;4416607;28;658560;-65
2022/12/04 07:39:44;;;;;;;48.80;18.73;;;1.20;99.90;;;;;;4410999;28;658633;-65
2022/12/04 07:42:31;;;;;;;48.43;17.57;;;1.30;99.90;;;;;;4393812;28;657463;-65
2022/12/04 07:45:19;;;;;;;50.47;18.77;;;1.50;99.90;;;;;;4415283;28;659092;-65
2022/12/04 07:48:08;;;;;;;50.60;20.20;;;1.50;99.90;;;;;;4387593;28;658855;-65
2022/12/04 07:51:02;;;;;;;51.40;19.03;;;1.60;99.90;;;;;;4405212;28;657633;-66
2022/12/04 07:53:49;;;;;;;47.83;18.70;;;1.70;99.90;;;;;;4391534;28;657964;-65
2022/12/04 07:56:37;;;;;;;41.27;16.73;;;1.70;99.90;;;;;;4394666;28;657343;-65
2022/12/04 07:59:24;;;;;;;62.20;26.30;;;1.80;99.90;;;;;;4411476;28;657971;-64
2022/12/04 08:02:12;;;;;;;59.37;23.63;;;1.90;99.90;;;;;;4393738;28;657759;-65
2022/12/04 08:05:00;;;;;;;58.40;25.58;;;1.80;99.90;;;;;;4414028;28;658230;-65
2022/12/04 08:07:48;;;;;;;52.40;21.70;;;1.90;99.90;;;;;;4391721;28;659608;-64
2022/12/04 08:10:35;;;;;;;42.57;19.13;;;1.90;99.90;;;;;;4402625;28;657675;-66
2022/12/04 08:13:22;;;;;;;40.77;18.83;;;1.90;99.90;;;;;;4413756;28;657982;-65
2022/12/04 08:16:10;;;;;;;48.77;20.90;;;2.10;99.90;;;;;;4412783;28;657389;-65
2022/12/04 08:18:57;;;;;;;45.30;18.40;;;2.20;99.90;;;;;;4386470;28;659431;-64
2022/12/04 08:21:46;;;;;;;45.40;18.07;;;2.10;99.90;;;;;;4411324;28;657659;-64
2022/12/04 08:24:33;;;;;;;40.07;18.47;;;2.00;99.90;;;;;;4398930;28;658463;-64
2022/12/04 08:27:20;;;;;;;38.97;17.83;;;2.10;99.90;;;;;;4402177;28;658053;-66
2022/12/04 08:30:08;;;;;;;42.42;19.73;;;2.20;99.90;;;;;;4415096;28;657450;-64
2022/12/04 08:32:55;;;;;;;43.77;19.90;;;2.40;99.90;;;;;;4392010;28;658530;-64
2022/12/04 08:35:42;;;;;;;55.50;21.90;;;2.50;99.90;;;;;;4410685;28;659626;-65
2022/12/04 08:38:31;;;;;;;46.20;20.30;;;2.70;99.90;;;;;;4408028;28;657685;-65
2022/12/04 08:41:21;;;;;;;39.47;18.00;;;2.70;99.90;;;;;;4416371;28;658306;-64
2022/12/04 08:44:09;;;;;;;33.77;16.07;;;2.80;99.90;;;;;;4393269;28;659197;-64
2022/12/04 08:46:56;;;;;;;39.23;18.87;;;2.80;99.90;;;;;;4394721;28;657529;-64
2022/12/04 08:49:43;;;;;;;38.70;19.70;;;2.90;99.90;;;;;;4415107;28;658273;-64
2022/12/04 08:52:31;;;;;;;42.47;18.85;;;2.90;99.90;;;;;;4400183;28;657869;-66
2022/12/04 08:55:19;;;;;;;38.10;18.23;;;2.80;99.90;;;;;;4419035;28;658711;-64
2022/12/04 08:58:06;;;;;;;35.63;17.80;;;2.80;99.90;;;;;;4393594;28;657305;-64
2022/12/04 09:00:53;;;;;;;40.13;18.20;;;2.70;99.90;;;;;;4580823;28;659174;-64
2022/12/04 09:03:40;;;;;;;38.30;18.57;;;2.80;99.90;;;;;;4693187;28;560455;-65
2022/12/04 09:06:27;;;;;;;43.47;19.23;;;2.80;99.90;;;;;;4415988;28;658571;-65
2022/12/04 09:09:15;;;;;;;39.87;18.07;;;2.80;99.90;;;;;;4409656;28;657483;-66
2022/12/04 09:12:04;;;;;;;44.23;21.37;;;2.70;99.90;;;;;;4412630;28;657709;-64
2022/12/04 09:14:51;;;;;;;38.23;18.23;;;2.70;99.90;;;;;;4394469;28;657636;-64
2022/12/04 09:17:38;;;;;;;41.50;18.10;;;2.70;99.90;;;;;;4405775;28;658249;-64
2022/12/04 09:20:25;;;;;;;42.70;19.67;;;2.70;99.90;;;;;;4392357;28;658070;-65
2022/12/04 09:23:12;;;;;;;80.63;18.50;;;2.70;99.90;;;;;;4411643;28;658526;-65
2022/12/04 09:25:59;;;;;;;45.70;18.90;;;2.70;99.90;;;;;;4413921;28;657180;-65
2022/12/04 09:28:48;;;;;;;42.57;19.60;;;2.80;99.90;;;;;;4387861;28;658064;-63
2022/12/04 09:31:35;;;;;;;39.80;17.60;;;2.80;99.90;;;;;;4390864;28;657452;-65
2022/12/04 09:34:22;;;;;;;35.70;17.50;;;2.80;99.90;;;;;;4411723;28;658794;-64
2022/12/04 09:37:09;;;;;;;42.03;19.60;;;2.80;99.90;;;;;;4406809;28;658579;-64
2022/12/04 09:39:56;;;;;;;41.70;19.20;;;2.80;99.90;;;;;;4383290;28;658298;-64
2022/12/04 09:42:45;;;;;;;36.53;17.67;;;2.90;99.90;;;;;;4408540;28;658366;-64
2022/12/04 09:45:37;;;;;;;41.03;19.07;;;3.00;99.90;;;;;;4386074;28;658490;-64
2022/12/04 09:48:26;;;;;;;37.93;18.47;;;3.00;99.90;;;;;;4387050;28;657601;-64
2022/12/04 09:51:17;;;;;;;44.45;20.08;;;3.00;99.90;;;;;;4388942;28;659002;-65
2022/12/04 09:54:07;;;;;;;37.20;16.92;;;3.10;99.90;;;;;;4390769;28;658375;-64
2022/12/04 09:56:55;;;;;;;32.93;15.03;;;3.00;99.90;;;;;;4386482;28;659036;-64
2022/12/04 09:59:42;;;;;;;38.50;18.97;;;3.00;99.90;;;;;;4394192;28;658573;-64
2022/12/04 10:02:35;;;;;;;40.93;18.63;;;3.00;99.90;;;;;;4411195;28;657647;-65
2022/12/04 10:05:26;;;;;;;35.87;18.13;;;3.10;99.90;;;;;;4388496;28;659312;-64
2022/12/04 10:08:18;;;;;;;34.30;17.07;;;3.00;99.90;;;;;;4389315;28;657586;-64
2022/12/04 10:11:09;;;;;;;36.60;17.80;;;3.10;99.90;;;;;;4369711;28;657605;-66
2022/12/04 10:14:03;;;;;;;40.00;19.67;;;3.20;99.90;;;;;;4389775;28;659294;-64
2022/12/04 10:17:10;;;;;;;36.40;17.87;;;3.30;99.90;;;;;;4392629;28;657629;-65
2022/12/04 10:20:00;;;;;;;37.07;18.17;;;3.40;99.90;;;;;;4391489;28;658072;-64
2022/12/04 10:22:53;;;;;;;40.30;19.40;;;3.70;99.90;;;;;;4387784;28;658567;-64
2022/12/04 10:25:40;;;;;;;39.92;19.35;;;3.80;99.90;;;;;;4390335;28;657250;-66
2022/12/04 10:28:29;;;;;;;41.50;18.70;;;3.90;99.90;;;;;;4414046;28;657452;-64
2022/12/04 10:31:16;;;;;;;38.00;18.53;;;4.10;99.90;;;;;;4392775;28;657761;-65
2022/12/04 10:34:06;;;;;;;37.60;18.60;;;4.20;99.90;;;;;;4408373;28;659395;-64
2022/12/04 10:36:55;;;;;;;37.23;17.07;;;4.40;99.90;;;;;;4386308;28;659053;-64
2022/12/04 10:39:44;;;;;;;30.38;16.48;;;4.30;99.90;;;;;;4391785;28;659012;-64
2022/12/04 10:42:32;;;;;;;33.60;18.08;;;4.20;99.90;;;;;;4387557;28;657723;-65
2022/12/04 10:45:21;;;;;;;32.70;15.60;;;4.30;99.90;;;;;;4411442;28;657356;-66
2022/12/04 10:48:10;;;;;;;34.30;17.50;;;4.50;99.90;;;;;;4410503;28;658682;-65
2022/12/04 10:50:57;;;;;;;38.67;20.87;;;4.60;99.90;;;;;;4382452;28;658887;-65
2022/12/04 10:53:48;;;;;;;34.42;18.17;;;4.70;99.90;;;;;;4409844;28;657784;-65
2022/12/04 10:56:35;;;;;;;32.80;17.50;;;4.90;99.90;;;;;;4374108;28;657846;-66
2022/12/04 10:59:22;;;;;;;35.97;17.90;;;5.10;99.90;;;;;;4416900;28;658484;-65
2022/12/04 11:02:19;;;;;;;28.70;15.93;;;5.60;99.90;;;;;;4866881;28;657908;-65
2022/12/04 11:05:08;;;;;;;29.27;16.37;;;6.20;99.90;;;;;;4364368;28;658827;-65
2022/12/04 11:07:55;;;;;;;32.27;16.87;;;6.50;99.90;;;;;;4393343;28;657947;-66
2022/12/04 11:10:44;;;;;;;30.83;16.13;;;6.80;99.90;;;;;;4411115;28;659277;-64
2022/12/04 11:13:31;;;;;;;28.70;15.63;;;6.80;99.90;;;;;;4387981;28;657503;-65
2022/12/04 11:16:32;;;;;;;32.23;16.87;;;6.30;99.90;;;;;;4409077;28;657885;-65
2022/12/04 11:19:23;;;;;;;30.83;16.20;;;6.10;99.90;;;;;;4390038;28;658004;-65
2022/12/04 11:22:13;;;;;;;28.10;15.60;;;5.70;99.90;;;;;;4364148;28;658502;-65
2022/12/04 11:25:01;;;;;;;30.40;15.27;;;5.50;99.90;;;;;;4393385;28;657747;-65
2022/12/04 11:27:51;;;;;;;29.45;16.20;;;5.30;99.90;;;;;;4407429;28;658108;-64
2022/12/04 11:30:38;;;;;;;31.27;16.60;;;5.10;99.90;;;;;;4383342;28;658465;-64
2022/12/04 11:33:28;;;;;;;31.33;15.93;;;4.80;99.90;;;;;;4390342;28;657483;-65
2022/12/04 11:36:19;;;;;;;33.87;17.97;;;5.00;99.90;;;;;;4398304;28;657830;-66
2022/12/04 11:39:07;;;;;;;31.47;16.00;;;5.10;99.90;;;;;;4387760;28;657643;-64
2022/12/04 11:42:02;;;;;;;31.50;17.17;;;5.20;99.90;;;;;;4364674;28;1102585;-66
2022/12/04 11:44:53;;;;;;;41.07;20.47;;;5.00;99.90;;;;;;4406856;28;658828;-65
2022/12/04 11:47:40;;;;;;;36.70;18.53;;;5.00;99.90;;;;;;4388356;28;658006;-65
2022/12/04 11:50:32;;;;;;;35.17;18.00;;;4.90;99.90;;;;;;4414893;28;658433;-65
2022/12/04 11:53:21;;;;;;;32.53;15.27;;;4.80;99.90;;;;;;4383343;28;658454;-65
2022/12/04 11:56:16;;;;;;;29.30;15.90;;;4.60;99.90;;;;;;4384632;28;658320;-64
2022/12/04 11:59:34;;;;;;;32.90;16.60;;;4.40;99.90;;;;;;4384826;28;657749;-66
2022/12/04 12:02:40;;;;;;;39.37;18.27;;;4.40;99.90;;;;;;4387803;28;658172;-64
2022/12/04 12:05:52;;;;;;;47.10;20.80;;;4.30;99.90;;;;;;4366297;28;657595;-64
2022/12/04 12:08:47;;;;;;;38.73;18.27;;;4.40;99.90;;;;;;4386288;28;658317;-63
2022/12/04 12:11:35;;;;;;;38.40;19.30;;;4.40;99.90;;;;;;4383336;28;657406;-64
2022/12/04 12:14:25;;;;;;;39.13;18.63;;;4.40;99.90;;;;;;4392684;28;657988;-64
2022/12/04 12:17:15;;;;;;;39.57;19.57;;;4.40;99.90;;;;;;4390193;28;658571;-64
2022/12/04 12:20:16;;;;;;;37.23;18.03;;;4.40;99.90;;;;;;4382527;28;658564;-64
2022/12/04 12:23:16;;;;;;;39.97;19.27;;;4.40;99.90;;;;;;4383935;28;658593;-64
2022/12/04 12:26:05;;;;;;;37.93;19.20;;;4.40;99.90;;;;;;4390334;28;657703;-65
2022/12/04 12:29:07;;;;;;;45.20;20.67;;;4.40;99.90;;;;;;4383660;28;659048;-66
2022/12/04 12:32:08;;;;;;;44.50;21.90;;;4.60;99.90;;;;;;4385914;28;657530;-65
2022/12/04 12:34:55;;;;;;;41.43;21.30;;;4.80;99.90;;;;;;4386445;28;657522;-66
2022/12/04 12:37:46;;;;;;;44.65;22.70;;;4.80;99.90;;;;;;4409502;28;657580;-66
2022/12/04 12:40:34;;;;;;;41.13;20.27;;;4.90;99.90;;;;;;4386109;28;658459;-65
2022/12/04 12:43:24;;;;;;;39.33;20.77;;;5.20;99.90;;;;;;4389103;28;657437;-66
2022/12/04 12:46:14;;;;;;;41.77;21.70;;;5.30;99.90;;;;;;4389730;28;657322;-64
2022/12/04 12:49:02;;;;;;;46.37;21.90;;;5.40;99.90;;;;;;4389830;28;657833;-65
2022/12/04 12:51:51;;;;;;;36.90;18.70;;;5.10;99.90;;;;;;4407693;28;658425;-64
2022/12/04 12:54:43;;;;;;;41.33;18.83;;;4.90;99.90;;;;;;4387525;28;659117;-65
2022/12/04 12:57:33;;;;;;;39.07;19.57;;;4.80;99.90;;;;;;4371611;28;657543;-66
2022/12/04 13:00:21;;;;;;;42.90;21.17;;;4.40;99.90;;;;;;4441854;28;657762;-65
2022/12/04 13:03:17;;;;;;;48.50;23.73;;;4.20;99.90;;;;;;4817563;28;535075;-64
2022/12/04 13:06:06;;;;;;;53.60;25.60;;;4.00;99.90;;;;;;4385268;28;657876;-64
2022/12/04 13:09:00;;;;;;;57.40;26.53;;;3.90;99.90;;;;;;4385225;28;657972;-64
2022/12/04 13:11:49;;;;;;;59.13;26.27;;;3.70;99.90;;;;;;4385815;28;658261;-64
2022/12/04 13:14:36;;;;;;;54.90;26.00;;;3.50;99.90;;;;;;4385828;28;657369;-64
2022/12/04 13:17:27;;;;;;;49.90;24.00;;;3.50;99.90;;;;;;4414169;28;657912;-64
2022/12/04 13:20:18;;;;;;;51.40;24.03;;;3.40;99.90;;;;;;4403960;28;658960;-65
2022/12/04 13:23:16;;;;;;;51.00;23.50;;;3.20;99.90;;;;;;4398705;28;657585;-66
2022/12/04 13:26:04;;;;;;;53.10;24.20;;;3.00;99.90;;;;;;4383524;28;657941;-64
2022/12/04 13:28:55;;;;;;;52.83;24.87;;;2.90;99.90;;;;;;4387472;28;657459;-65
2022/12/04 13:31:48;;;;;;;52.22;24.55;;;2.90;99.90;;;;;;4392056;28;658539;-65
2022/12/04 13:34:47;;;;;;;51.17;23.43;;;2.70;99.90;;;;;;4376296;28;658359;-65
2022/12/04 13:37:41;;;;;;;54.37;24.77;;;2.70;99.90;;;;;;4388655;28;657615;-64
2022/12/04 13:40:34;;;;;;;49.20;24.03;;;2.60;99.90;;;;;;4384505;28;658520;-65
2022/12/04 13:43:44;;;;;;;46.73;23.40;;;2.60;99.90;;;;;;4362228;28;658362;-65
2022/12/04 13:46:34;;;;;;;57.75;25.50;;;2.50;99.90;;;;;;4388149;28;657944;-64
2022/12/04 13:49:26;;;;;;;60.10;25.77;;;2.50;99.90;;;;;;4390365;28;657999;-65
2022/12/04 13:52:21;;;;;;;62.73;27.93;;;2.40;99.90;;;;;;4383585;28;658681;-64
2022/12/04 13:55:23;;;;;;;60.13;26.03;;;2.20;99.90;;;;;;4384073;28;657927;-64
2022/12/04 13:58:25;;;;;;;52.50;24.40;;;2.20;99.90;;;;;;4365313;28;658669;-65
2022/12/04 14:01:23;;;;;;;60.70;25.73;;;2.20;99.90;;;;;;4364896;28;657558;-65
2022/12/04 14:04:23;;;;;;;52.30;22.97;;;2.20;99.90;;;;;;4364098;28;658512;-65
2022/12/04 14:07:22;;;;;;;58.07;25.13;;;2.20;99.90;;;;;;4390691;28;658350;-65
2022/12/04 14:10:25;;;;;;;63.13;27.90;;;2.20;99.90;;;;;;4386611;28;657784;-64
2022/12/04 14:13:17;;;;;;;60.60;27.00;;;2.20;99.90;;;;;;4362113;28;658636;-65
2022/12/04 14:16:07;;;;;;;63.33;28.37;;;2.10;99.90;;;;;;4405943;28;657534;-66
2022/12/04 14:18:55;;;;;;;67.70;27.57;;;2.10;99.90;;;;;;4406084;28;657544;-66
2022/12/04 14:21:44;;;;;;;132.13;28.13;;;2.10;99.90;;;;;;4388854;28;659191;-64
2022/12/04 14:24:34;;;;;;;70.03;28.27;;;2.10;99.90;;;;;;4389319;28;658807;-65
2022/12/04 14:27:33;;;;;;;75.53;31.57;;;2.10;99.90;;;;;;4390676;28;657380;-65
2022/12/04 14:30:23;;;;;;;74.83;30.90;;;2.00;99.90;;;;;;4365955;28;657925;-64